Time;durP1;ratioP1;P1;durP2;ratioP2;P2;SDS_P1;SDS_P2;PMS_P1;PMS_P2;Temp;Humidity;BMP_temperature;BMP_pressure;BME280_temperature;BME280_humidity;BME280_pressure;Samples;Min_cycle;Max_cycle;Signal;HPM_P1;HPM_P2
2023/04/05 00:00:45;;;;;;;;;;;;;;;4.65;65.28;94656.34;4955559;29;1219;-52
2023/04/05 00:03:11;;;;;;;;;;;;;;;4.66;65.21;94650.06;4955805;29;1034;-52
2023/04/05 00:05:37;;;;;;;;;;;;;;;4.66;66.07;94657.19;4955539;29;1023;-52
2023/04/05 00:08:07;;;;;;;;;;;;;;;4.67;65.29;94656.22;4954305;29;1426;-52
2023/04/05 00:10:33;;;;;;;;;;;;;;;4.76;64.77;94657.19;4936255;29;1028;-52
2023/04/05 00:12:59;;;;;;;;;;;;;;;4.80;66.07;94651.50;4936594;29;1036;-52
2023/04/05 00:15:26;;;;;;;;;;;;;;;4.82;66.31;94652.19;4936342;29;1007;-52
2023/04/05 00:17:53;;;;;;;;;;;;;;;4.78;67.18;94661.41;4936404;29;1982;-51
2023/04/05 00:20:19;;;;;;;;;;;;;;;4.84;65.63;94655.53;4936430;29;1040;-52
2023/04/05 00:22:45;;;;;;;;;;;;;;;4.82;66.28;94659.31;4936107;29;1055;-52
2023/04/05 00:25:11;;;;;;;;;;;;;;;4.83;66.38;94650.38;4919159;29;1860;-52
2023/04/05 00:27:38;;;;;;;;;;;;;;;4.68;67.13;94655.25;4936212;29;1063;-52
2023/04/05 00:30:04;;;;;;;;;;;;;;;4.69;67.55;94648.97;4936037;29;1201;-52
2023/04/05 00:32:31;;;;;;;;;;;;;;;4.66;66.56;94662.47;4935893;29;1203;-52
2023/04/05 00:34:57;;;;;;;;;;;;;;;4.62;66.55;94669.03;4936246;29;1019;-51
2023/04/05 00:37:23;;;;;;;;;;;;;;;4.54;68.01;94675.00;4935875;29;1987;-51
2023/04/05 00:39:49;;;;;;;;;;;;;;;4.64;66.98;94669.72;4936325;29;1059;-51
2023/04/05 00:42:15;;;;;;;;;;;;;;;4.67;66.01;94674.75;4935998;29;1055;-52
2023/04/05 00:44:41;;;;;;;;;;;;;;;4.64;66.17;94673.22;4935446;29;924;-52
2023/04/05 00:47:07;;;;;;;;;;;;;;;4.77;66.18;94678.25;4936116;29;1011;-51
2023/04/05 00:49:33;;;;;;;;;;;;;;;4.81;66.85;94679.66;4935792;29;1323;-52
2023/04/05 00:52:00;;;;;;;;;;;;;;;4.77;66.51;94677.41;4936133;29;1021;-52
2023/04/05 00:54:28;;;;;;;;;;;;;;;4.67;67.11;94686.19;4936070;29;1046;-52
2023/04/05 00:56:58;;;;;;;;;;;;;;;4.68;66.34;94679.91;4935894;29;1878;-52
2023/04/05 00:59:25;;;;;;;;;;;;;;;4.67;66.31;94691.47;4935668;29;1986;-52
2023/04/05 01:02:07;;;;;;;;;;;;;;;4.71;66.44;94691.22;4936081;29;1035;-52
2023/04/05 01:04:35;;;;;;;;;;;;;;;4.60;66.92;94689.50;4936016;29;963;-51
2023/04/05 01:07:20;;;;;;;;;;;;;;;4.67;66.45;94691.47;4936073;29;1020;-52
2023/04/05 01:09:55;;;;;;;;;;;;;;;4.62;66.04;94693.69;4950642;29;1165;-52
2023/04/05 01:12:21;;;;;;;;;;;;;;;4.41;67.14;94693.78;4955130;29;1019;-52
2023/04/05 01:14:51;;;;;;;;;;;;;;;4.48;67.24;94704.69;4955078;29;1035;-52
2023/04/05 01:17:21;;;;;;;;;;;;;;;4.38;67.70;94698.50;4954785;29;1276;-51
2023/04/05 01:19:52;;;;;;;;;;;;;;;4.34;68.08;94699.75;4955042;29;1026;-52
2023/04/05 01:22:30;;;;;;;;;;;;;;;4.28;68.03;94701.13;4954992;29;1047;-51
2023/04/05 01:25:21;;;;;;;;;;;;;;;4.33;68.13;94701.56;4955063;29;951;-52
2023/04/05 01:27:50;;;;;;;;;;;;;;;4.34;68.21;94707.69;4954793;29;1035;-52
2023/04/05 01:30:20;;;;;;;;;;;;;;;4.40;68.24;94705.34;4954696;29;978;-52
2023/04/05 01:32:46;;;;;;;;;;;;;;;4.39;67.95;94708.97;4954693;29;1053;-52
2023/04/05 01:35:15;;;;;;;;;;;;;;;4.49;68.68;94707.16;4954915;29;1043;-52
2023/04/05 01:37:44;;;;;;;;;;;;;;;4.54;67.70;94706.78;4954894;29;1907;-51
2023/04/05 01:40:10;;;;;;;;;;;;;;;4.37;69.13;94702.97;4954638;29;959;-52
2023/04/05 01:42:36;;;;;;;;;;;;;;;4.37;69.95;94704.78;4954597;29;1032;-52
2023/04/05 01:45:02;;;;;;;;;;;;;;;4.39;70.02;94703.66;4954547;29;1150;-52
2023/04/05 01:47:28;;;;;;;;;;;;;;;4.36;69.43;94711.03;4954457;29;1031;-52
2023/04/05 01:49:54;;;;;;;;;;;;;;;4.43;69.24;94706.88;4954472;29;1357;-52
2023/04/05 01:52:20;;;;;;;;;;;;;;;4.33;69.40;94698.09;4954674;29;951;-52
2023/04/05 01:54:46;;;;;;;;;;;;;;;4.25;69.79;94702.22;4954616;28;1071;-52
2023/04/05 01:57:12;;;;;;;;;;;;;;;4.44;69.15;94703.25;4957046;29;1110;-52
2023/04/05 01:59:38;;;;;;;;;;;;;;;4.52;68.84;94711.38;4957986;29;1918;-52
2023/04/05 02:02:04;;;;;;;;;;;;;;;4.30;70.00;94707.13;4957824;29;1019;-52
2023/04/05 02:04:30;;;;;;;;;;;;;;;4.18;70.29;94705.53;4958008;29;1025;-52
2023/04/05 02:06:56;;;;;;;;;;;;;;;4.15;70.83;94713.75;4958075;29;1031;-52
2023/04/05 02:09:22;;;;;;;;;;;;;;;4.26;70.86;94703.06;4946067;29;1184;-52
2023/04/05 02:11:48;;;;;;;;;;;;;;;4.22;70.13;94706.94;4938593;29;1007;-52
2023/04/05 02:14:15;;;;;;;;;;;;;;;4.33;69.17;94706.84;4938568;29;1067;-52
2023/04/05 02:16:41;;;;;;;;;;;;;;;4.43;69.76;94709.53;4938414;29;1070;-52
2023/04/05 02:19:07;;;;;;;;;;;;;;;4.42;69.58;94708.69;4938525;29;1907;-52
2023/04/05 02:21:35;;;;;;;;;;;;;;;4.45;69.70;94711.06;4938535;29;1035;-52
2023/04/05 02:24:01;;;;;;;;;;;;;;;4.49;68.54;94716.94;4938465;29;991;-52
2023/04/05 02:26:27;;;;;;;;;;;;;;;4.59;68.78;94707.22;4938146;29;964;-52
2023/04/05 02:28:53;;;;;;;;;;;;;;;4.45;70.40;94716.34;4938323;29;1033;-52
2023/04/05 02:31:19;;;;;;;;;;;;;;;4.30;71.11;94715.06;4937956;29;1851;-52
2023/04/05 02:33:47;;;;;;;;;;;;;;;4.33;71.29;94711.31;4938088;29;1015;-52
2023/04/05 02:36:13;;;;;;;;;;;;;;;4.37;70.93;94716.19;4938344;29;1015;-51
2023/04/05 02:38:39;;;;;;;;;;;;;;;4.40;69.92;94713.28;4937923;29;1994;-51
2023/04/05 02:41:10;;;;;;;;;;;;;;;4.32;71.03;94710.47;4938210;29;972;-52
2023/04/05 02:43:36;;;;;;;;;;;;;;;4.41;70.11;94714.13;4938220;29;959;-52
2023/04/05 02:46:02;;;;;;;;;;;;;;;4.26;70.52;94716.28;4938064;29;975;-52
2023/04/05 02:48:29;;;;;;;;;;;;;;;4.34;70.69;94712.97;4937870;29;1097;-52
2023/04/05 02:50:55;;;;;;;;;;;;;;;4.21;71.19;94710.56;4937979;29;994;-51
2023/04/05 02:53:22;;;;;;;;;;;;;;;4.12;71.13;94712.22;4937805;29;967;-51
2023/04/05 02:55:55;;;;;;;;;;;;;;;4.09;71.64;94713.28;4937758;29;1083;-51
2023/04/05 02:58:22;;;;;;;;;;;;;;;4.14;72.82;94709.44;4937555;29;1914;-51
2023/04/05 03:00:53;;;;;;;;;;;;;;;4.11;71.13;94713.16;4937433;29;1103;-51
2023/04/05 03:03:19;;;;;;;;;;;;;;;4.11;71.80;94708.69;4937609;29;944;-51
2023/04/05 03:05:47;;;;;;;;;;;;;;;4.11;72.92;94707.88;4936932;29;1680;-51
2023/04/05 03:08:17;;;;;;;;;;;;;;;4.17;72.36;94714.44;4939591;29;1228;-51
2023/04/05 03:10:46;;;;;;;;;;;;;;;4.13;72.87;94716.50;4956641;29;1043;-51
2023/04/05 03:13:13;;;;;;;;;;;;;;;4.06;73.25;94724.16;4956385;29;1098;-51
2023/04/05 03:15:40;;;;;;;;;;;;;;;4.05;73.73;94724.28;4956683;29;1331;-51
2023/04/05 03:18:06;;;;;;;;;;;;;;;3.98;73.93;94725.78;4956273;29;1993;-51
2023/04/05 03:20:39;;;;;;;;;;;;;;;3.89;74.40;94725.59;4956296;29;1026;-51
2023/04/05 03:23:08;;;;;;;;;;;;;;;3.67;75.57;94726.56;4956688;29;990;-51
2023/04/05 03:25:35;;;;;;;;;;;;;;;3.51;77.60;94727.03;4956190;29;1078;-51
2023/04/05 03:28:05;;;;;;;;;;;;;;;3.51;77.46;94728.84;4956197;29;971;-51
2023/04/05 03:30:31;;;;;;;;;;;;;;;3.53;76.85;94729.56;4956337;29;1234;-51
2023/04/05 03:33:00;;;;;;;;;;;;;;;3.54;76.94;94735.66;4956283;29;1007;-51
2023/04/05 03:35:29;;;;;;;;;;;;;;;3.68;77.74;94732.69;4956279;29;1038;-51
2023/04/05 03:37:55;;;;;;;;;;;;;;;3.71;76.95;94732.44;4956085;29;1919;-51
2023/04/05 03:40:24;;;;;;;;;;;;;;;3.61;78.35;94735.03;4955885;29;1011;-51
2023/04/05 03:42:50;;;;;;;;;;;;;;;3.63;78.19;94732.25;4956263;29;1047;-51
2023/04/05 03:45:17;;;;;;;;;;;;;;;3.81;75.67;94741.25;4955796;29;1335;-51
2023/04/05 03:47:43;;;;;;;;;;;;;;;3.84;76.99;94746.31;4955915;29;1335;-52
2023/04/05 03:50:09;;;;;;;;;;;;;;;3.80;77.30;94744.06;4956112;29;1036;-51
2023/04/05 03:52:36;;;;;;;;;;;;;;;3.81;76.94;94745.72;4955894;29;1090;-51
2023/04/05 03:55:02;;;;;;;;;;;;;;;3.78;77.06;94738.91;4955957;29;971;-51
2023/04/05 03:57:28;;;;;;;;;;;;;;;3.76;77.26;94734.72;4955864;29;2011;-51
2023/04/05 03:59:54;;;;;;;;;;;;;;;3.78;76.66;94738.91;4955869;29;970;-51
2023/04/05 04:02:20;;;;;;;;;;;;;;;3.77;77.46;94741.66;4955604;29;1102;-51
2023/04/05 04:04:46;;;;;;;;;;;;;;;3.88;75.86;94738.94;4955903;29;1059;-51
2023/04/05 04:07:13;;;;;;;;;;;;;;;3.84;76.20;94742.81;4955533;29;798;-51
2023/04/05 04:09:39;;;;;;;;;;;;;;;3.80;76.09;94736.94;4941745;29;1268;-51
2023/04/05 04:12:05;;;;;;;;;;;;;;;3.84;76.25;94741.00;4936522;29;1047;-51
2023/04/05 04:14:33;;;;;;;;;;;;;;;3.80;77.12;94747.53;4936184;29;932;-50
2023/04/05 04:16:59;;;;;;;;;;;;;;;3.89;74.84;94744.13;4936551;29;1060;-51
2023/04/05 04:19:25;;;;;;;;;;;;;;;3.79;75.82;94751.13;4935271;29;1915;-51
2023/04/05 04:21:51;;;;;;;;;;;;;;;3.87;75.76;94750.47;4936223;29;1047;-51
2023/04/05 04:24:18;;;;;;;;;;;;;;;3.89;74.83;94757.34;4936286;29;1027;-51
2023/04/05 04:26:44;;;;;;;;;;;;;;;3.87;75.64;94754.00;4936371;29;1042;-51
2023/04/05 04:29:11;;;;;;;;;;;;;;;3.85;75.91;94757.72;4936002;29;971;-51
2023/04/05 04:31:38;;;;;;;;;;;;;;;3.76;77.52;94763.81;4936307;29;1030;-51
2023/04/05 04:34:04;;;;;;;;;;;;;;;3.85;76.89;94763.00;4936130;29;1030;-52
2023/04/05 04:36:38;;;;;;;;;;;;;;;3.85;77.06;94761.22;4935995;29;1242;-51
2023/04/05 04:39:07;;;;;;;;;;;;;;;3.77;77.29;94768.09;4935905;29;1980;-51
2023/04/05 04:41:34;;;;;;;;;;;;;;;3.71;78.41;94767.66;4935877;29;1091;-51
2023/04/05 04:44:04;;;;;;;;;;;;;;;3.54;77.63;94767.38;4936009;29;1050;-51
2023/04/05 04:46:33;;;;;;;;;;;;;;;3.43;79.01;94769.09;4935781;29;1067;-51
2023/04/05 04:49:04;;;;;;;;;;;;;;;3.48;78.32;94763.44;4935780;29;1097;-52
2023/04/05 04:51:36;;;;;;;;;;;;;;;3.46;79.60;94765.38;4935909;29;980;-52
2023/04/05 04:54:02;;;;;;;;;;;;;;;3.54;80.30;94770.88;4935866;29;1043;-53
2023/04/05 04:56:28;;;;;;;;;;;;;;;3.53;79.39;94766.56;4935755;29;1145;-51
2023/04/05 04:58:55;;;;;;;;;;;;;;;3.49;79.13;94767.75;4935626;29;1914;-52
2023/04/05 05:01:23;;;;;;;;;;;;;;;3.52;79.97;94770.16;4935731;29;1078;-52
2023/04/05 05:03:50;;;;;;;;;;;;;;;3.56;79.88;94774.22;4936063;29;1058;-51
2023/04/05 05:06:18;;;;;;;;;;;;;;;3.61;79.84;94782.63;4935984;29;1032;-52
2023/04/05 05:08:46;;;;;;;;;;;;;;;3.60;78.99;94785.38;4942647;29;1145;-51
2023/04/05 05:11:12;;;;;;;;;;;;;;;3.54;78.42;94784.06;4954769;29;1023;-52
2023/04/05 05:13:38;;;;;;;;;;;;;;;3.76;78.21;94787.59;4954617;29;1042;-52
2023/04/05 05:16:04;;;;;;;;;;;;;;;3.69;78.00;94782.81;4954853;29;1202;-52
2023/04/05 05:18:30;;;;;;;;;;;;;;;3.64;78.81;94786.78;4954655;29;1914;-52
2023/04/05 05:20:56;;;;;;;;;;;;;;;3.75;80.50;94791.19;4954751;29;1503;-51
2023/04/05 05:23:22;;;;;;;;;;;;;;;3.96;79.47;94793.84;4954605;29;1880;-52
2023/04/05 05:25:50;;;;;;;;;;;;;;;4.01;79.06;94791.66;4954862;29;1039;-53
2023/04/05 05:28:16;;;;;;;;;;;;;;;3.99;78.90;94801.53;4954720;29;1081;-53
2023/04/05 05:30:42;;;;;;;;;;;;;;;4.06;79.15;94792.06;4957053;28;975;-53
2023/04/05 05:33:08;;;;;;;;;;;;;;;4.16;78.05;94795.63;4958624;29;1043;-52
2023/04/05 05:35:36;;;;;;;;;;;;;;;4.20;78.50;94796.22;4958245;29;1034;-52
2023/04/05 05:38:02;;;;;;;;;;;;;;;4.14;78.72;94796.75;4958482;29;1997;-52
2023/04/05 05:40:28;;;;;;;;;;;;;;;4.00;77.20;94801.38;4958609;29;1226;-52
2023/04/05 05:42:55;;;;;;;;;;;;;;;4.12;78.28;94799.53;4958438;29;1014;-52
2023/04/05 05:45:21;;;;;;;;;;;;;;;4.45;77.08;94798.41;4940941;29;2054;-52
2023/04/05 05:47:47;;;;;;;;;;;;;;;4.37;76.83;94798.25;4957934;29;1107;-53
2023/04/05 05:50:15;;;;;;;;;;;;;;;4.28;77.07;94801.69;4958347;29;1043;-52
2023/04/05 05:52:41;;;;;;;;;;;;;;;4.22;76.91;94804.88;4958230;29;1026;-52
2023/04/05 05:55:08;;;;;;;;;;;;;;;4.29;75.43;94806.84;4958039;29;1090;-53
2023/04/05 05:57:35;;;;;;;;;;;;;;;4.33;75.58;94801.31;4957609;29;2001;-52
2023/04/05 06:00:03;;;;;;;;;;;;;;;4.38;74.24;94802.59;4958046;29;1041;-52
2023/04/05 06:02:31;;;;;;;;;;;;;;;4.47;73.40;94809.72;4957801;29;1037;-52
2023/04/05 06:04:57;;;;;;;;;;;;;;;4.40;73.38;94805.94;4957833;29;1099;-52
2023/04/05 06:07:23;;;;;;;;;;;;;;;4.43;74.94;94805.66;4957743;29;1889;-52
2023/04/05 06:09:49;;;;;;;;;;;;;;;4.44;74.75;94801.19;4942372;29;1153;-52
2023/04/05 06:12:15;;;;;;;;;;;;;;;4.55;73.82;94808.22;4938651;29;1034;-52
2023/04/05 06:14:41;;;;;;;;;;;;;;;4.63;73.23;94809.25;4938565;29;1012;-52
2023/04/05 06:17:07;;;;;;;;;;;;;;;4.59;73.08;94807.84;4938422;29;1061;-52
2023/04/05 06:19:33;;;;;;;;;;;;;;;4.81;72.48;94808.59;4938603;29;1987;-52
2023/04/05 06:22:00;;;;;;;;;;;;;;;4.83;73.43;94814.59;4938362;29;1051;-52
2023/04/05 06:24:30;;;;;;;;;;;;;;;4.77;71.97;94809.84;4938246;29;1064;-52
2023/04/05 06:26:56;;;;;;;;;;;;;;;4.95;71.65;94807.38;4938218;29;1055;-52
2023/04/05 06:29:23;;;;;;;;;;;;;;;4.85;72.82;94821.44;4921559;29;1032;-52
2023/04/05 06:31:49;;;;;;;;;;;;;;;4.68;71.60;94822.06;4938205;29;1047;-52
2023/04/05 06:34:15;;;;;;;;;;;;;;;4.66;72.47;94824.84;4938314;29;1034;-52
2023/04/05 06:36:41;;;;;;;;;;;;;;;4.77;72.17;94821.28;4938093;29;1055;-52
2023/04/05 06:39:07;;;;;;;;;;;;;;;4.85;71.93;94823.25;4938145;29;1907;-52
2023/04/05 06:41:33;;;;;;;;;;;;;;;4.75;70.61;94795.91;4937036;29;1075;-52
2023/04/05 06:43:59;;;;;;;;;;;;;;;4.96;71.12;94824.97;4938279;29;991;-52
2023/04/05 06:46:25;;;;;;;;;;;;;;;5.13;70.06;94828.78;4937819;29;964;-52
2023/04/05 06:48:52;;;;;;;;;;;;;;;5.24;69.61;94832.16;4937766;29;1126;-52
2023/04/05 06:51:18;;;;;;;;;;;;;;;5.48;68.47;94837.09;4937985;29;1082;-52
2023/04/05 06:53:44;;;;;;;;;;;;;;;5.48;66.32;94842.41;4938092;29;1027;-52
2023/04/05 06:56:11;;;;;;;;;;;;;;;5.52;66.96;94845.59;4937651;29;1088;-52
2023/04/05 06:58:37;;;;;;;;;;;;;;;5.81;67.21;94844.78;4937946;29;1907;-52
2023/04/05 07:01:03;;;;;;;;;;;;;;;6.07;64.91;94845.09;4937950;29;953;-52
2023/04/05 07:03:29;;;;;;;;;;;;;;;5.96;66.18;94854.03;4937625;29;920;-52
2023/04/05 07:05:58;;;;;;;;;;;;;;;5.86;66.15;94854.00;4937841;29;1047;-52
2023/04/05 07:08:24;;;;;;;;;;;;;;;5.79;66.17;94858.19;4941429;29;1295;-52
2023/04/05 07:10:51;;;;;;;;;;;;;;;5.87;65.98;94850.34;4956725;29;1046;-52
2023/04/05 07:13:17;;;;;;;;;;;;;;;6.13;63.97;94856.94;4956495;29;1035;-53
2023/04/05 07:15:44;;;;;;;;;;;;;;;6.30;64.49;94869.53;4956555;29;972;-52
2023/04/05 07:18:10;;;;;;;;;;;;;;;6.24;64.50;94870.91;4956763;29;1911;-52
2023/04/05 07:20:36;;;;;;;;;;;;;;;6.31;65.49;94870.34;4939457;29;1039;-52
2023/04/05 07:23:04;;;;;;;;;;;;;;;6.31;65.59;94865.88;4956585;29;1014;-53
2023/04/05 07:25:30;;;;;;;;;;;;;;;6.22;65.59;94867.56;4956452;29;983;-52
2023/04/05 07:27:57;;;;;;;;;;;;;;;6.41;67.65;94874.69;4956288;29;1547;-52
2023/04/05 07:30:24;;;;;;;;;;;;;;;6.39;65.00;94883.75;4956245;29;1139;-52
2023/04/05 07:32:50;;;;;;;;;;;;;;;6.34;64.84;94875.38;4956247;29;1031;-52
2023/04/05 07:35:16;;;;;;;;;;;;;;;6.56;64.93;94876.88;4956309;29;973;-52
2023/04/05 07:37:42;;;;;;;;;;;;;;;6.43;65.72;94869.19;4956245;29;1993;-52
2023/04/05 07:40:09;;;;;;;;;;;;;;;6.58;66.31;94867.78;4956399;29;1156;-52
2023/04/05 07:42:35;;;;;;;;;;;;;;;6.77;63.15;94866.03;4955986;29;1630;-53
2023/04/05 07:45:02;;;;;;;;;;;;;;;6.75;62.59;94866.19;4956037;29;1015;-53
2023/04/05 07:47:28;;;;;;;;;;;;;;;6.72;66.80;94871.81;4955879;29;1012;-53
2023/04/05 07:49:54;;;;;;;;;;;;;;;6.70;63.27;94872.94;4955844;29;1073;-53
2023/04/05 07:52:20;;;;;;;;;;;;;;;6.93;63.99;94876.91;4955935;28;1035;-53
2023/04/05 07:54:46;;;;;;;;;;;;;;;7.04;61.22;94873.22;4955996;29;1031;-52
2023/04/05 07:57:17;;;;;;;;;;;;;;;7.05;61.66;94869.56;4955714;29;1031;-53
2023/04/05 07:59:43;;;;;;;;;;;;;;;6.77;62.69;94872.22;4955677;29;1902;-53
2023/04/05 08:02:09;;;;;;;;;;;;;;;6.45;63.85;94878.72;4956005;29;1023;-53
2023/04/05 08:04:35;;;;;;;;;;;;;;;6.68;62.21;94878.38;4955947;29;1367;-52
2023/04/05 08:07:02;;;;;;;;;;;;;;;6.99;61.73;94873.66;4955608;29;1035;-53
2023/04/05 08:09:28;;;;;;;;;;;;;;;7.36;60.18;94877.25;4943370;29;1177;-52
2023/04/05 08:11:56;;;;;;;;;;;;;;;7.59;59.05;94875.88;4936352;29;1612;-53
2023/04/05 08:14:22;;;;;;;;;;;;;;;7.70;61.16;94874.00;4936239;29;1475;-57
2023/04/05 08:16:49;;;;;;;;;;;;;;;7.99;57.91;94879.13;4936673;29;983;-52
2023/04/05 08:19:15;;;;;;;;;;;;;;;8.05;54.86;94888.34;4936171;29;2011;-53
2023/04/05 08:21:41;;;;;;;;;;;;;;;7.94;54.72;94887.53;4936545;29;1131;-53
2023/04/05 08:24:07;;;;;;;;;;;;;;;7.93;54.28;94883.22;4936262;29;1111;-53
2023/04/05 08:26:33;;;;;;;;;;;;;;;7.93;56.85;94888.56;4936083;29;1059;-53
2023/04/05 08:28:59;;;;;;;;;;;;;;;7.93;56.86;94883.22;4919575;29;1056;-53
2023/04/05 08:31:25;;;;;;;;;;;;;;;7.81;54.62;94890.56;4936142;29;1894;-52
2023/04/05 08:33:51;;;;;;;;;;;;;;;7.56;55.85;94884.16;4936286;29;991;-53
2023/04/05 08:36:17;;;;;;;;;;;;;;;7.45;54.14;94892.34;4936131;29;1992;-53
2023/04/05 08:38:44;;;;;;;;;;;;;;;7.57;55.21;94890.31;4936133;29;2015;-53
2023/04/05 08:41:21;;;;;;;;;;;;;;;7.40;54.81;94886.66;4936019;29;1247;-53
2023/04/05 08:43:47;;;;;;;;;;;;;;;7.50;54.43;94895.41;4936130;29;1055;-53
2023/04/05 08:46:15;;;;;;;;;;;;;;;7.59;54.80;94883.03;4936104;29;1043;-53
2023/04/05 08:48:41;;;;;;;;;;;;;;;7.87;54.22;94890.97;4935799;29;1113;-54
2023/04/05 08:51:08;;;;;;;;;;;;;;;8.09;53.01;94900.34;4936001;29;1036;-53
2023/04/05 08:53:35;;;;;;;;;;;;;;;8.08;55.19;94894.19;4936201;29;1181;-53
2023/04/05 08:56:01;;;;;;;;;;;;;;;8.26;52.95;94894.16;4935862;29;1275;-53
2023/04/05 08:58:28;;;;;;;;;;;;;;;8.36;54.81;94892.25;4936006;29;1918;-53
2023/04/05 09:00:55;;;;;;;;;;;;;;;8.17;52.59;94898.56;4936087;29;1030;-53
2023/04/05 09:03:24;;;;;;;;;;;;;;;8.12;53.19;94898.22;4935803;29;1220;-53
2023/04/05 09:05:51;;;;;;;;;;;;;;;7.82;52.23;94896.75;4938494;29;1032;-52
2023/04/05 09:08:17;;;;;;;;;;;;;;;7.93;52.25;94896.53;4942769;29;1878;-53
2023/04/05 09:10:43;;;;;;;;;;;;;;;8.25;52.54;94900.47;4958773;29;1037;-53
2023/04/05 09:13:09;;;;;;;;;;;;;;;8.19;51.84;94895.75;4958802;29;1118;-53
2023/04/05 09:15:36;;;;;;;;;;;;;;;7.86;50.06;94894.63;4959079;29;1027;-53
2023/04/05 09:18:02;;;;;;;;;;;;;;;7.91;51.48;94898.53;4956945;29;2005;-53
2023/04/05 09:20:28;;;;;;;;;;;;;;;7.88;52.17;94900.63;4939484;29;865;-53
2023/04/05 09:22:57;;;;;;;;;;;;;;;7.95;52.00;94899.06;4939543;29;1047;-53
2023/04/05 09:25:34;;;;;;;;;;;;;;;8.12;51.68;94902.69;4939243;29;1106;-53
2023/04/05 09:28:04;;;;;;;;;;;;;;;8.05;49.41;94898.97;4939649;29;1031;-53
2023/04/05 09:30:31;;;;;;;;;;;;;;;7.88;49.76;94904.13;4939223;29;1023;-53
2023/04/05 09:32:58;;;;;;;;;;;;;;;8.15;51.30;94892.56;4939247;29;1081;-54
2023/04/05 09:35:25;;;;;;;;;;;;;;;8.08;51.09;94893.31;4939400;29;1051;-54
2023/04/05 09:37:52;;;;;;;;;;;;;;;8.14;50.84;94887.41;4939141;29;1915;-54
2023/04/05 09:40:18;;;;;;;;;;;;;;;8.20;49.76;94887.63;4938993;29;940;-54
2023/04/05 09:42:45;;;;;;;;;;;;;;;8.23;49.51;94893.63;4939371;29;987;-54
2023/04/05 09:45:11;;;;;;;;;;;;;;;8.26;49.46;94891.50;4938741;29;1283;-54
2023/04/05 09:51:22;;;;;;;;;;;;;;;8.35;48.41;94879.94;4927193;29;1445;-54
2023/04/05 09:53:58;;;;;;;;;;;;;;;8.58;49.37;94884.81;4939034;29;1057;-54
2023/04/05 09:56:25;;;;;;;;;;;;;;;8.55;48.54;94879.78;4938929;29;1316;-54
2023/04/05 09:58:51;;;;;;;;;;;;;;;8.66;51.38;94876.84;4938758;29;1993;-54
2023/04/05 10:01:18;;;;;;;;;;;;;;;9.02;49.69;94876.75;4938980;29;1125;-54
2023/04/05 10:03:47;;;;;;;;;;;;;;;8.83;50.52;94876.97;4938786;29;1098;-54
2023/04/05 10:06:17;;;;;;;;;;;;;;;8.55;48.24;94883.28;4938718;29;1032;-54
2023/04/05 10:08:46;;;;;;;;;;;;;;;8.35;50.59;94876.44;4945634;29;1180;-54
2023/04/05 10:11:12;;;;;;;;;;;;;;;8.02;49.70;94886.78;4957979;29;1036;-54
2023/04/05 10:13:39;;;;;;;;;;;;;;;7.86;50.89;94879.50;4957767;29;1074;-54
2023/04/05 10:16:07;;;;;;;;;;;;;;;8.14;51.24;94876.75;4957028;28;1015;-54
2023/04/05 10:18:40;;;;;;;;;;;;;;;8.45;50.45;94879.03;4957368;29;1910;-54
2023/04/05 10:21:10;;;;;;;;;;;;;;;8.67;49.85;94873.22;4957779;29;1050;-54
2023/04/05 10:23:38;;;;;;;;;;;;;;;8.83;50.36;94868.97;4957758;29;1018;-54
2023/04/05 10:26:11;;;;;;;;;;;;;;;8.50;49.18;94884.72;4957489;29;1027;-53
2023/04/05 10:28:42;;;;;;;;;;;;;;;8.29;47.39;94874.38;4940491;29;1028;-54
2023/04/05 10:31:26;;;;;;;;;;;;;;;8.33;49.23;94873.09;4957382;29;1106;-54
2023/04/05 10:34:12;;;;;;;;;;;;;;;8.61;50.10;94868.50;4957632;29;975;-54
2023/04/05 10:36:48;;;;;;;;;;;;;;;8.65;49.97;94861.88;4957037;29;1865;-53
2023/04/05 10:39:14;;;;;;;;;;;;;;;8.49;50.51;94867.09;4957019;29;1989;-53
2023/04/05 10:41:47;;;;;;;;;;;;;;;8.62;49.85;94872.84;4957378;29;1019;-54
2023/04/05 10:44:13;;;;;;;;;;;;;;;8.59;49.40;94879.31;4957216;29;979;-54
2023/04/05 10:46:40;;;;;;;;;;;;;;;8.67;48.44;94873.22;4957142;29;1998;-54
2023/04/05 10:49:19;;;;;;;;;;;;;;;8.71;49.77;94868.41;4957032;29;1019;-53
2023/04/05 10:51:45;;;;;;;;;;;;;;;8.76;47.41;94872.28;4957079;29;1143;-53
2023/04/05 10:54:12;;;;;;;;;;;;;;;8.63;48.96;94876.34;4940119;29;1023;-53
2023/04/05 10:56:38;;;;;;;;;;;;;;;8.69;47.89;94873.91;4957157;29;1090;-52
2023/04/05 10:59:05;;;;;;;;;;;;;;;8.84;48.10;94870.63;4957145;29;1911;-53
2023/04/05 11:01:31;;;;;;;;;;;;;;;8.89;47.85;94869.16;4956826;29;1067;-53
2023/04/05 11:04:09;;;;;;;;;;;;;;;9.14;48.59;94872.84;4957122;29;1015;-54
2023/04/05 11:06:35;;;;;;;;;;;;;;;9.25;47.24;94884.22;4955920;29;975;-54
2023/04/05 11:09:09;;;;;;;;;;;;;;;9.28;46.34;94882.06;4946706;29;1192;-54
2023/04/05 11:11:40;;;;;;;;;;;;;;;9.32;46.94;94880.75;4937194;29;1063;-54
2023/04/05 11:14:22;;;;;;;;;;;;;;;9.49;46.86;94889.66;4937049;29;1019;-54
2023/04/05 11:16:53;;;;;;;;;;;;;;;9.69;48.79;94881.38;4937247;29;1027;-54
2023/04/05 11:19:19;;;;;;;;;;;;;;;9.40;45.74;94890.63;4937572;29;1903;-54
2023/04/05 11:21:45;;;;;;;;;;;;;;;9.31;46.20;94879.06;4937831;29;978;-54
2023/04/05 11:24:14;;;;;;;;;;;;;;;9.75;47.21;94886.06;4937003;29;1078;-54
2023/04/05 11:26:46;;;;;;;;;;;;;;;9.85;45.63;94878.75;4937100;29;1070;-54
2023/04/05 11:29:14;;;;;;;;;;;;;;;9.90;46.94;94879.09;4936884;29;1019;-54
2023/04/05 11:31:58;;;;;;;;;;;;;;;9.74;43.48;94887.91;4937067;29;1059;-54
2023/04/05 11:34:24;;;;;;;;;;;;;;;10.10;44.97;94881.47;4936866;29;1091;-54
2023/04/05 11:36:50;;;;;;;;;;;;;;;10.00;45.10;94884.31;4920347;29;1055;-54
2023/04/05 11:39:22;;;;;;;;;;;;;;;9.93;45.90;94877.94;4936593;29;1902;-54
2023/04/05 11:41:51;;;;;;;;;;;;;;;9.95;45.30;94886.63;4937161;29;1062;-54
2023/04/05 11:44:17;;;;;;;;;;;;;;;9.60;45.78;94885.88;4937003;29;967;-54
2023/04/05 11:46:46;;;;;;;;;;;;;;;9.29;47.29;94874.88;4936691;29;1051;-54
2023/04/05 11:49:12;;;;;;;;;;;;;;;8.93;46.56;94880.38;4936943;29;1043;-54
2023/04/05 11:51:42;;;;;;;;;;;;;;;9.05;48.82;94870.25;4936506;29;1306;-54
2023/04/05 11:54:08;;;;;;;;;;;;;;;9.02;49.17;94855.41;4936509;29;1032;-54
2023/04/05 11:56:35;;;;;;;;;;;;;;;9.08;48.66;94860.09;4936748;29;960;-54
2023/04/05 11:59:01;;;;;;;;;;;;;;;9.10;47.27;94868.78;4936519;29;1987;-54
2023/04/05 12:01:27;;;;;;;;;;;;;;;9.19;47.37;94867.84;4936576;29;999;-54
2023/04/05 12:03:54;;;;;;;;;;;;;;;9.16;47.13;94870.84;4936560;29;956;-54
2023/04/05 12:06:24;;;;;;;;;;;;;;;9.08;46.78;94864.63;4936369;29;1018;-54
2023/04/05 12:08:51;;;;;;;;;;;;;;;9.23;48.39;94863.03;4943972;29;1161;-54
2023/04/05 12:11:28;;;;;;;;;;;;;;;9.23;45.34;94868.34;4955534;29;1035;-54
2023/04/05 12:13:58;;;;;;;;;;;;;;;9.17;46.30;94863.66;4955570;29;1200;-54
2023/04/05 12:16:25;;;;;;;;;;;;;;;9.31;47.61;94849.72;4955654;29;979;-54
2023/04/05 12:18:54;;;;;;;;;;;;;;;9.28;48.55;94843.88;4955233;29;1985;-54
2023/04/05 12:21:20;;;;;;;;;;;;;;;9.28;47.29;94844.72;4955276;29;936;-54
2023/04/05 12:23:46;;;;;;;;;;;;;;;9.17;47.56;94848.50;4955426;29;1248;-54
2023/04/05 12:26:13;;;;;;;;;;;;;;;9.14;48.42;94848.81;4955227;29;1043;-53
2023/04/05 12:28:55;;;;;;;;;;;;;;;9.11;48.40;94854.47;4955276;29;1083;-54
2023/04/05 12:31:40;;;;;;;;;;;;;;;9.15;47.98;94847.81;4955061;29;1110;-54
2023/04/05 12:34:07;;;;;;;;;;;;;;;9.03;48.71;94850.91;4955454;29;973;-54
2023/04/05 12:36:33;;;;;;;;;;;;;;;8.93;47.10;94854.53;4955061;29;1043;-54
2023/04/05 12:39:00;;;;;;;;;;;;;;;9.02;47.71;94851.94;4954931;28;1911;-54
2023/04/05 12:41:30;;;;;;;;;;;;;;;8.68;47.70;94848.22;4954823;29;978;-54
2023/04/05 12:44:00;;;;;;;;;;;;;;;8.38;45.25;94863.66;4955360;29;949;-54
2023/04/05 12:46:43;;;;;;;;;;;;;;;8.55;46.55;94858.47;4955325;29;1027;-54
2023/04/05 12:49:10;;;;;;;;;;;;;;;8.56;46.74;94862.81;4955232;29;1016;-54
2023/04/05 12:51:40;;;;;;;;;;;;;;;8.42;48.36;94856.19;4954962;29;1175;-54
2023/04/05 12:54:06;;;;;;;;;;;;;;;8.42;51.69;94845.53;4954939;29;1045;-54
2023/04/05 12:56:32;;;;;;;;;;;;;;;8.18;51.42;94844.34;4954858;29;1042;-54
2023/04/05 12:58:58;;;;;;;;;;;;;;;8.00;51.59;94854.16;4954871;29;2056;-53
2023/04/05 13:01:25;;;;;;;;;;;;;;;7.90;51.31;94845.41;4954835;29;1026;-54
2023/04/05 13:03:51;;;;;;;;;;;;;;;7.85;52.61;94845.84;4954875;29;1038;-54
2023/04/05 13:06:17;;;;;;;;;;;;;;;7.90;51.32;94834.78;4955103;29;1193;-54
2023/04/05 13:08:43;;;;;;;;;;;;;;;7.75;52.10;94840.63;4948455;29;1292;-53
2023/04/05 13:11:10;;;;;;;;;;;;;;;7.90;52.68;94842.75;4935986;29;1063;-54
2023/04/05 13:13:36;;;;;;;;;;;;;;;7.84;53.00;94846.03;4935782;29;1027;-54
2023/04/05 13:16:02;;;;;;;;;;;;;;;7.68;52.37;94841.38;4935976;29;986;-53